Time;durP1;ratioP1;P1;durP2;ratioP2;P2;SDS_P1;SDS_P2;PMS_P1;PMS_P2;Temp;Humidity;BMP_temperature;BMP_pressure;BME280_temperature;BME280_humidity;BME280_pressure;Samples;Min_cycle;Max_cycle;Signal;HPM_P1;HPM_P2
2023/04/12 00:01:13;;;;;;;13.05;4.43;;;;;;;9.38;93.96;100680.28;5052790;28;20056;-70
2023/04/12 00:03:38;;;;;;;14.88;4.45;;;;;;;8.67;93.46;100566.72;5054881;28;20067;-69
2023/04/12 00:06:06;;;;;;;19.15;4.15;;;;;;;9.51;93.89;100682.25;5057277;28;20029;-69
2023/04/12 00:08:32;;;;;;;14.32;3.97;;;;;;;9.53;93.96;100685.53;5057473;28;20079;-69
2023/04/12 00:10:59;;;;;;;14.10;4.10;;;;;;;9.57;94.53;100691.34;5058037;28;20063;-69
2023/04/12 00:13:25;;;;;;;13.27;3.97;;;;;;;9.59;94.13;100689.31;5057758;28;20021;-69
2023/04/12 00:15:50;;;;;;;22.13;4.10;;;;;;;9.61;94.43;100685.41;5059102;28;20059;-70
2023/04/12 00:18:15;;;;;;;15.95;3.83;;;;;;;9.64;94.30;100686.88;5059476;28;20104;-70
2023/04/12 00:20:42;;;;;;;15.95;4.20;;;;;;;9.67;94.00;100680.25;5041684;28;20452;-69
2023/04/12 00:23:08;;;;;;;12.60;3.10;;;;;;;9.71;94.76;100674.31;5057685;28;20032;-69
2023/04/12 00:25:35;;;;;;;15.30;4.00;;;;;;;9.76;94.65;100673.72;5057842;28;20040;-69
2023/04/12 00:28:00;;;;;;;15.65;3.63;;;;;;;9.78;95.12;100675.19;5060463;28;20040;-69
2023/04/12 00:30:26;;;;;;;17.15;3.50;;;;;;;9.79;94.85;100676.00;5057695;28;20464;-70
2023/04/12 00:32:51;;;;;;;15.65;3.50;;;;;;;9.66;94.76;100652.56;5058086;28;20036;-69
2023/04/12 00:35:16;;;;;;;19.02;3.70;;;;;;;9.82;94.37;100683.69;5046526;28;20090;-69
2023/04/12 00:37:42;;;;;;;17.15;3.53;;;;;;;9.83;94.59;100669.22;5058612;28;20108;-69
2023/04/12 00:40:08;;;;;;;10.75;3.60;;;;;;;9.86;94.69;100676.88;5038380;28;20032;-69
2023/04/12 00:42:35;;;;;;;20.15;4.40;;;;;;;9.87;94.53;100678.56;5057167;28;20029;-69
2023/04/12 00:45:00;;;;;;;20.08;3.63;;;;;;;9.87;94.95;100673.19;5056910;28;20039;-69
2023/04/12 00:47:28;;;;;;;11.45;3.38;;;;;;;9.84;95.28;100666.34;5056716;28;20033;-70
2023/04/12 00:49:54;;;;;;;17.13;3.88;;;;;;;9.82;94.99;100657.63;5039292;28;20111;-70
2023/04/12 00:52:21;;;;;;;15.45;3.97;;;;;;;9.80;94.86;100648.97;5055888;28;20028;-69
2023/04/12 00:54:46;;;;;;;13.15;3.90;;;;;;;9.89;95.24;100663.88;5057328;28;20028;-70
2023/04/12 00:57:12;;;;;;;15.88;3.78;;;;;;;9.89;95.31;100669.25;5056177;28;20102;-69
2023/04/12 00:59:38;;;;;;;17.85;4.05;;;;;;;9.92;95.58;100661.81;5057145;28;20116;-69
2023/04/12 01:02:03;;;;;;;12.80;3.75;;;;;;;9.93;95.40;100660.78;5055314;28;20025;-70
2023/04/12 01:04:29;;;;;;;14.70;3.70;;;;;;;9.95;94.78;100656.06;5056917;28;20032;-69
2023/04/12 01:07:20;;;;;;;11.88;3.50;;;;;;;9.97;95.71;100659.38;5052399;28;20029;-69
2023/04/12 01:09:58;;;;;;;13.43;3.88;;;;;;;9.97;95.34;100656.72;5054649;28;20040;-69
2023/04/12 01:12:39;;;;;;;15.75;3.55;;;;;;;9.97;95.59;100646.78;5056820;28;20032;-69
2023/04/12 01:15:11;;;;;;;15.15;3.88;;;;;;;9.91;95.52;100633.31;5056666;28;20032;-69
2023/04/12 01:17:56;;;;;;;9.65;3.42;;;;;;;10.03;95.00;100658.56;5057718;28;20025;-69
2023/04/12 01:20:26;;;;;;;12.65;3.80;;;;;;;10.04;95.08;100654.88;5060917;28;20068;-70
2023/04/12 01:23:43;;;;;;;10.25;3.80;;;;;;;10.06;95.79;100655.47;5060435;28;20021;-69
2023/04/12 01:26:11;;;;;;;15.95;3.88;;;;;;;10.10;95.01;100654.09;5060969;28;20036;-70
2023/04/12 01:28:42;;;;;;;10.98;3.65;;;;;;;10.10;95.78;100654.91;5060908;28;20021;-69
2023/04/12 01:31:09;;;;;;;13.55;3.80;;;;;;;10.07;94.91;100655.31;5060578;28;20021;-70
2023/04/12 01:33:39;;;;;;;7.97;3.92;;;;;;;10.12;95.73;100652.81;5060115;28;20032;-69
2023/04/12 01:36:19;;;;;;;11.43;3.90;;;;;;;9.97;95.41;100627.13;5062383;28;20484;-69
2023/04/12 01:38:45;;;;;;;11.88;3.40;;;;;;;9.95;95.05;100623.81;5061404;28;20021;-69
2023/04/12 01:41:11;;;;;;;19.25;3.65;;;;;;;10.04;95.55;100641.44;5062601;28;20024;-69
2023/04/12 01:43:44;;;;;;;15.93;3.47;;;;;;;10.06;95.10;100647.41;5062371;28;20099;-69
2023/04/12 01:46:15;;;;;;;15.82;3.22;;;;;;;10.03;94.96;100639.75;5061935;28;20082;-69
2023/04/12 01:48:53;;;;;;;13.43;3.10;;;;;;;10.04;95.10;100649.50;5061309;28;20111;-69
2023/04/12 01:51:42;;;;;;;16.75;4.18;;;;;;;10.03;94.99;100647.81;5060459;28;20056;-69
2023/04/12 01:54:12;;;;;;;9.82;2.80;;;;;;;9.82;94.82;100614.63;5060481;28;20086;-69
2023/04/12 01:56:42;;;;;;;13.13;3.40;;;;;;;9.94;95.47;100649.84;5062448;28;20032;-69
2023/04/12 01:59:10;;;;;;;11.25;3.58;;;;;;;9.90;95.03;100637.84;5062383;28;20021;-69
2023/04/12 02:01:36;;;;;;;9.75;2.78;;;;;;;9.86;95.05;100642.78;5061400;28;20063;-69
2023/04/12 02:04:03;;;;;;;13.25;3.25;;;;;;;9.82;94.96;100633.44;5060847;28;20033;-69
2023/04/12 02:06:30;;;;;;;15.00;3.13;;;;;;;9.74;94.87;100630.94;5077445;28;20044;-69
2023/04/12 02:08:58;;;;;;;11.90;3.20;;;;;;;9.74;94.91;100644.38;5061735;28;20026;-69
2023/04/12 02:11:23;;;;;;;14.57;3.58;;;;;;;9.53;94.73;100618.38;5061590;28;20066;-70
2023/04/12 02:13:49;;;;;;;16.08;3.17;;;;;;;9.62;94.93;100635.19;5061537;28;20036;-69
2023/04/12 02:16:15;;;;;;;17.83;3.10;;;;;;;9.52;94.70;100629.34;5060798;28;20123;-70
2023/04/12 02:18:41;;;;;;;10.60;3.38;;;;;;;9.43;94.62;100630.50;5061922;28;20072;-69
2023/04/12 02:21:06;;;;;;;12.15;3.38;;;;;;;9.39;94.76;100630.91;5062311;28;20377;-69
2023/04/12 02:23:32;;;;;;;13.88;3.75;;;;;;;9.33;94.36;100637.03;5061937;28;20036;-69
2023/04/12 02:25:57;;;;;;;14.20;3.63;;;;;;;9.26;94.05;100630.81;5043143;28;20083;-69
2023/04/12 02:28:22;;;;;;;15.32;3.92;;;;;;;9.23;94.46;100636.56;5057730;28;20031;-69
2023/04/12 02:30:52;;;;;;;13.43;4.30;;;;;;;9.13;94.48;100630.69;5062104;28;20048;-70
2023/04/12 02:33:20;;;;;;;13.15;3.75;;;;;;;9.15;94.14;100637.53;5059565;28;20040;-69
2023/04/12 02:35:46;;;;;;;12.60;3.70;;;;;;;9.10;93.82;100633.75;5061179;28;20554;-69
2023/04/12 02:38:12;;;;;;;13.40;4.15;;;;;;;9.02;94.68;100631.22;5061130;28;20475;-69
2023/04/12 02:40:39;;;;;;;12.77;3.85;;;;;;;8.97;94.30;100636.34;5061658;28;20116;-69
2023/04/12 02:43:05;;;;;;;12.82;3.83;;;;;;;8.77;94.08;100604.78;5059776;28;20556;-69
2023/04/12 02:45:30;;;;;;;15.20;4.15;;;;;;;8.84;94.41;100620.94;5059120;28;20033;-69
2023/04/12 02:47:56;;;;;;;16.95;5.40;;;;;;;8.85;93.95;100617.25;5059661;28;20028;-69
2023/04/12 02:50:21;;;;;;;13.20;4.32;;;;;;;8.82;94.47;100620.31;5060574;28;20024;-69
2023/04/12 02:52:47;;;;;;;13.52;4.93;;;;;;;8.62;93.68;100601.34;5061643;28;20032;-70
2023/04/12 02:55:12;;;;;;;10.45;4.35;;;;;;;8.72;93.92;100628.69;5030825;28;20508;-69
2023/04/12 02:57:37;;;;;;;13.60;4.72;;;;;;;8.68;94.29;100612.16;5041257;28;20046;-70
2023/04/12 03:00:10;;;;;;;17.73;5.30;;;;;;;8.65;93.84;100614.38;5040819;28;20060;-70
2023/04/12 03:02:36;;;;;;;13.77;4.68;;;;;;;8.60;93.79;100612.25;5059542;28;20021;-69
2023/04/12 03:05:03;;;;;;;14.52;4.97;;;;;;;8.59;93.94;100617.81;5059689;28;20480;-69
2023/04/12 03:07:29;;;;;;;17.58;5.75;;;;;;;8.47;94.00;100602.22;5060636;28;20424;-69
2023/04/12 03:09:55;;;;;;;14.80;5.15;;;;;;;8.49;93.44;100611.94;5058693;28;20028;-69
2023/04/12 03:12:21;;;;;;;15.90;4.93;;;;;;;8.42;93.65;100612.69;5068198;28;20040;-70
2023/04/12 03:14:46;;;;;;;15.38;5.40;;;;;;;8.36;94.09;100602.69;5065511;28;20040;-69
2023/04/12 03:17:11;;;;;;;16.38;5.82;;;;;;;8.26;93.84;100595.97;5056694;28;20032;-69
2023/04/12 03:19:37;;;;;;;19.08;5.25;;;;;;;8.26;93.96;100602.16;5058497;28;20484;-69
2023/04/12 03:22:03;;;;;;;17.73;5.43;;;;;;;8.21;93.45;100605.44;5068804;28;20048;-69
2023/04/12 03:24:32;;;;;;;17.33;5.38;;;;;;;8.16;93.26;100607.00;5068518;28;20120;-69
2023/04/12 03:26:58;;;;;;;13.45;5.47;;;;;;;8.08;93.31;100602.59;5070451;28;20126;-70
2023/04/12 03:29:24;;;;;;;16.02;5.85;;;;;;;8.03;93.25;100606.84;5071087;28;20037;-69
2023/04/12 03:31:49;;;;;;;17.98;5.90;;;;;;;8.00;93.57;100600.81;5072120;28;20039;-69
2023/04/12 03:34:15;;;;;;;17.17;5.60;;;;;;;7.88;93.72;100594.31;5071037;28;20041;-69
2023/04/12 03:36:40;;;;;;;17.60;5.00;;;;;;;7.88;94.00;100598.81;5051975;28;20057;-69
2023/04/12 03:39:06;;;;;;;17.27;6.00;;;;;;;7.84;93.80;100598.34;5063882;28;20035;-69
2023/04/12 03:41:32;;;;;;;16.80;6.15;;;;;;;7.80;93.01;100594.38;5058517;28;20025;-69
2023/04/12 03:43:57;;;;;;;17.55;6.93;;;;;;;7.76;92.91;100595.78;5056680;28;20024;-69
2023/04/12 03:46:23;;;;;;;21.48;7.72;;;;;;;7.72;93.33;100597.19;5054801;28;20037;-69
2023/04/12 03:48:50;;;;;;;20.65;7.13;;;;;;;7.53;92.99;100575.28;5024619;28;20033;-69
2023/04/12 03:51:16;;;;;;;16.15;7.13;;;;;;;7.64;93.26;100597.25;5059158;28;20033;-69
2023/04/12 03:53:41;;;;;;;20.05;7.47;;;;;;;7.59;92.77;100599.69;5059418;28;20051;-68
2023/04/12 03:56:07;;;;;;;18.90;7.60;;;;;;;7.57;93.40;100601.69;5058051;28;20116;-69
2023/04/12 03:58:33;;;;;;;25.00;8.25;;;;;;;7.50;93.22;100590.91;5057902;28;20028;-69
2023/04/12 04:01:05;;;;;;;17.20;7.85;;;;;;;7.54;93.23;100594.84;5056556;28;20025;-69
2023/04/12 04:03:33;;;;;;;20.65;9.02;;;;;;;7.53;93.09;100596.72;5056965;28;20033;-69
2023/04/12 04:06:02;;;;;;;18.40;8.77;;;;;;;7.46;93.52;100589.59;5067293;28;20040;-69
2023/04/12 04:08:29;;;;;;;23.45;8.85;;;;;;;7.33;93.01;100584.06;5047429;28;20044;-69
2023/04/12 04:10:58;;;;;;;24.20;10.38;;;;;;;7.33;93.36;100589.41;5055519;28;20033;-69
2023/04/12 04:13:24;;;;;;;22.55;10.10;;;;;;;7.39;92.90;100594.03;5054490;28;20025;-69
2023/04/12 04:15:57;;;;;;;26.23;10.02;;;;;;;7.38;93.49;100593.19;5056852;28;20105;-69
2023/04/12 04:18:23;;;;;;;25.23;10.18;;;;;;;7.25;93.21;100579.59;5057984;28;20047;-69
2023/04/12 04:20:48;;;;;;;20.88;10.65;;;;;;;7.31;93.08;100586.91;5057290;28;20025;-69
2023/04/12 04:23:14;;;;;;;28.70;11.25;;;;;;;7.24;93.01;100580.63;5057804;28;20333;-69
2023/04/12 04:25:40;;;;;;;27.08;11.18;;;;;;;7.15;92.94;100560.31;5056716;28;20025;-69
2023/04/12 04:28:06;;;;;;;25.58;10.98;;;;;;;7.38;92.82;100590.50;5040247;28;20164;-69
2023/04/12 04:30:33;;;;;;;30.63;11.07;;;;;;;7.46;92.79;100585.06;5056906;28;20124;-69
2023/04/12 04:32:58;;;;;;;26.88;11.32;;;;;;;7.57;92.46;100581.09;5058194;28;20029;-70
2023/04/12 04:35:24;;;;;;;25.02;11.25;;;;;;;7.82;91.90;100578.97;5056810;28;20033;-69
2023/04/12 04:37:51;;;;;;;24.52;10.70;;;;;;;8.19;90.53;100590.53;5059642;28;20051;-69
2023/04/12 04:40:19;;;;;;;25.58;10.05;;;;;;;8.49;89.07;100579.75;5059894;28;20448;-69
2023/04/12 04:42:45;;;;;;;26.98;11.30;;;;;;;8.74;87.80;100583.72;5054763;28;20044;-69
2023/04/12 04:45:14;;;;;;;26.30;11.02;;;;;;;8.87;86.86;100564.22;5053982;28;20036;-69
2023/04/12 04:47:39;;;;;;;23.38;10.75;;;;;;;9.27;85.57;100575.25;5057185;28;20127;-69
2023/04/12 04:50:06;;;;;;;27.90;11.27;;;;;;;9.53;83.89;100582.66;5055700;28;20040;-69
2023/04/12 04:52:31;;;;;;;26.52;10.95;;;;;;;9.81;82.73;100578.06;5038810;28;20021;-69
2023/04/12 04:54:57;;;;;;;25.92;11.05;;;;;;;10.12;81.04;100576.72;5056273;28;20043;-69
2023/04/12 04:57:23;;;;;;;30.52;11.07;;;;;;;10.29;79.57;100571.84;5056429;28;20024;-69
2023/04/12 04:59:49;;;;;;;28.05;11.13;;;;;;;10.53;78.90;100565.91;5057526;28;20119;-69
2023/04/12 05:02:15;;;;;;;28.52;10.35;;;;;;;10.81;77.96;100560.34;5057413;28;20052;-69
2023/04/12 05:04:41;;;;;;;24.60;9.98;;;;;;;11.03;77.05;100554.75;5054207;28;20036;-69
2023/04/12 05:07:06;;;;;;;23.02;9.93;;;;;;;11.30;75.99;100560.94;5053085;28;20025;-69
2023/04/12 05:09:31;;;;;;;21.23;9.98;;;;;;;11.47;74.95;100555.91;5056527;28;20507;-69
2023/04/12 05:11:57;;;;;;;28.85;9.80;;;;;;;11.78;74.41;100563.28;5038490;28;20025;-69
2023/04/12 05:14:22;;;;;;;23.48;9.75;;;;;;;12.07;73.79;100570.03;5054313;28;20420;-69
2023/04/12 05:16:47;;;;;;;23.52;9.27;;;;;;;12.25;72.78;100568.50;5058167;28;20116;-69
2023/04/12 05:19:13;;;;;;;24.25;9.25;;;;;;;12.46;71.99;100558.22;5058293;28;20108;-69
2023/04/12 05:21:38;;;;;;;15.82;8.43;;;;;;;12.78;71.00;100554.66;5057256;28;20025;-69
2023/04/12 05:24:04;;;;;;;22.30;8.38;;;;;;;12.89;70.81;100543.16;5040784;28;20035;-70
2023/04/12 05:26:29;;;;;;;24.63;8.63;;;;;;;13.25;69.88;100555.13;5057285;28;20028;-69
2023/04/12 05:28:55;;;;;;;20.80;8.43;;;;;;;12.35;73.05;100550.81;5040553;28;20086;-69
2023/04/12 05:31:20;;;;;;;20.67;8.85;;;;;;;12.31;74.03;100554.97;5057195;28;20155;-69
2023/04/12 05:33:47;;;;;;;19.48;8.23;;;;;;;12.06;74.89;100546.00;5056340;28;20420;-69
2023/04/12 05:36:12;;;;;;;17.83;8.50;;;;;;;11.83;75.73;100539.22;5054158;28;20029;-69
2023/04/12 05:38:38;;;;;;;21.20;8.60;;;;;;;11.49;76.97;100538.50;5039823;28;20039;-69
2023/04/12 05:41:04;;;;;;;18.90;7.65;;;;;;;10.04;82.33;100525.84;5056538;28;20037;-69
2023/04/12 05:43:30;;;;;;;18.60;7.78;;;;;;;10.06;84.78;100540.72;5040088;28;20025;-69
2023/04/12 05:45:55;;;;;;;16.98;7.53;;;;;;;10.01;85.75;100543.19;5056833;28;20342;-69
2023/04/12 05:48:21;;;;;;;18.13;7.57;;;;;;;9.99;86.03;100522.91;5056552;28;20373;-70
2023/04/12 05:50:53;;;;;;;19.15;7.45;;;;;;;10.40;86.09;100543.50;5057871;28;20029;-70
2023/04/12 05:53:20;;;;;;;16.35;6.85;;;;;;;10.17;86.83;100558.13;5058051;28;20018;-69
2023/04/12 05:55:46;;;;;;;19.25;7.20;;;;;;;9.93;88.75;100553.28;5056602;28;20021;-69
2023/04/12 05:58:11;;;;;;;17.40;6.20;;;;;;;9.71;89.49;100537.28;5056289;28;20123;-70
2023/04/12 06:00:40;;;;;;;13.88;6.25;;;;;;;9.98;89.88;100540.91;5040533;28;20488;-69
2023/04/12 06:03:08;;;;;;;17.58;6.10;;;;;;;10.23;88.81;100545.72;5078005;28;20029;-69
2023/04/12 06:05:33;;;;;;;17.58;5.38;;;;;;;9.96;89.52;100542.97;5062548;28;20037;-69
2023/04/12 06:07:59;;;;;;;12.15;5.60;;;;;;;9.92;90.12;100538.19;5060661;28;20032;-69
2023/04/12 06:10:25;;;;;;;15.05;5.82;;;;;;;9.97;90.69;100538.44;5059165;28;20025;-69
2023/04/12 06:12:50;;;;;;;15.40;4.80;;;;;;;10.03;90.61;100530.41;5042235;28;20053;-69
2023/04/12 06:15:16;;;;;;;11.35;4.75;;;;;;;10.41;89.12;100534.44;5059677;28;20040;-69
2023/04/12 06:17:41;;;;;;;11.38;4.15;;;;;;;9.76;90.38;100524.06;5058031;28;20090;-69
2023/04/12 06:20:08;;;;;;;16.77;4.50;;;;;;;9.70;90.65;100532.97;5059134;28;20063;-69
2023/04/12 06:22:34;;;;;;;11.75;4.65;;;;;;;10.07;90.48;100525.44;5057008;28;20036;-69
2023/04/12 06:24:59;;;;;;;13.90;3.97;;;;;;;10.05;89.30;100506.81;5059201;28;20021;-69
2023/04/12 06:27:25;;;;;;;13.57;3.65;;;;;;;9.91;89.27;100521.25;5041596;28;20079;-69
2023/04/12 06:29:51;;;;;;;10.82;3.45;;;;;;;10.01;89.47;100526.25;5059335;28;20491;-69
2023/04/12 06:32:16;;;;;;;11.18;3.40;;;;;;;9.95;88.77;100524.34;5059759;28;20083;-69
2023/04/12 06:34:42;;;;;;;19.73;3.72;;;;;;;10.59;87.40;100515.81;5059367;28;20032;-69
2023/04/12 06:37:07;;;;;;;8.48;2.78;;;;;;;10.74;85.69;100521.81;5041737;28;20029;-69
2023/04/12 06:39:33;;;;;;;11.10;3.05;;;;;;;11.11;85.27;100516.81;5057768;28;20021;-69
2023/04/12 06:41:58;;;;;;;11.02;3.60;;;;;;;10.90;86.06;100517.06;5055391;28;20377;-69
2023/04/12 06:44:25;;;;;;;11.57;2.97;;;;;;;11.19;85.44;100518.47;5038111;28;20491;-70
2023/04/12 06:46:51;;;;;;;7.47;2.25;;;;;;;11.43;84.26;100517.81;5059649;28;20037;-70
2023/04/12 06:49:16;;;;;;;8.90;2.72;;;;;;;11.51;83.61;100519.41;5057146;28;20016;-69
2023/04/12 06:51:42;;;;;;;9.48;2.47;;;;;;;11.52;83.33;100519.22;5057091;28;20105;-69
2023/04/12 06:54:08;;;;;;;9.73;2.33;;;;;;;11.12;83.26;100507.69;5043442;28;20029;-69
2023/04/12 06:56:35;;;;;;;7.45;2.30;;;;;;;11.49;83.24;100514.25;5057961;28;20043;-69
2023/04/12 06:59:01;;;;;;;5.80;2.03;;;;;;;11.52;82.35;100512.97;5057347;28;20098;-69
2023/04/12 07:01:26;;;;;;;6.32;1.92;;;;;;;11.68;81.25;100514.38;5059545;28;20407;-69
2023/04/12 07:03:52;;;;;;;9.93;2.08;;;;;;;11.70;81.56;100518.53;5059068;28;20541;-69
2023/04/12 07:06:17;;;;;;;8.15;2.10;;;;;;;11.83;80.67;100519.53;5057141;28;20029;-69
2023/04/12 07:08:43;;;;;;;6.65;2.13;;;;;;;11.80;80.19;100510.00;5058691;28;20039;-69
2023/04/12 07:11:08;;;;;;;11.20;1.90;;;;;;;12.02;79.82;100502.47;5057321;28;20032;-69
2023/04/12 07:13:33;;;;;;;8.18;2.20;;;;;;;11.55;80.62;100507.19;5040573;28;20115;-69
2023/04/12 07:15:59;;;;;;;7.82;2.50;;;;;;;11.67;80.81;100510.03;5040094;28;20037;-70
2023/04/12 07:18:25;;;;;;;10.45;2.22;;;;;;;11.95;80.50;100507.03;5058449;28;20068;-69
2023/04/12 07:20:55;;;;;;;7.55;1.88;;;;;;;11.89;79.77;100508.75;5041190;28;20044;-69
2023/04/12 07:23:20;;;;;;;13.63;2.28;;;;;;;11.90;80.19;100507.69;5057415;28;20041;-69
2023/04/12 07:25:45;;;;;;;6.50;1.85;;;;;;;11.51;80.85;100501.38;5058697;28;20099;-69
2023/04/12 07:28:11;;;;;;;9.65;2.00;;;;;;;11.21;81.85;100497.53;5057218;28;20060;-70
2023/04/12 07:30:39;;;;;;;8.65;1.75;;;;;;;11.47;80.01;100470.53;5058113;28;20040;-69
2023/04/12 07:33:05;;;;;;;14.48;2.10;;;;;;;11.46;80.91;100495.81;5056864;28;20021;-69
2023/04/12 07:35:31;;;;;;;8.80;1.73;;;;;;;11.59;81.37;100494.94;5058211;28;20079;-69
2023/04/12 07:37:57;;;;;;;6.15;1.60;;;;;;;11.59;80.30;100491.41;5057399;28;20090;-69
2023/04/12 07:40:23;;;;;;;6.60;1.50;;;;;;;11.91;79.53;100493.16;5058260;28;20033;-70
2023/04/12 07:42:49;;;;;;;12.35;1.23;;;;;;;11.97;78.96;100494.19;5039594;28;20047;-69
2023/04/12 07:45:14;;;;;;;7.10;1.27;;;;;;;12.36;77.43;100497.69;5055340;28;20033;-69
2023/04/12 07:47:40;;;;;;;5.28;1.30;;;;;;;12.43;76.54;100493.06;5058869;28;20032;-69
2023/04/12 07:50:06;;;;;;;5.63;1.20;;;;;;;12.46;76.44;100498.00;5059888;28;20510;-69
2023/04/12 07:52:32;;;;;;;12.98;1.70;;;;;;;12.74;75.51;100500.28;5060333;28;20506;-69
2023/04/12 07:54:57;;;;;;;5.88;1.45;;;;;;;12.97;74.74;100496.13;5041731;28;20040;-69
2023/04/12 07:57:23;;;;;;;6.68;1.58;;;;;;;12.52;74.89;100497.16;5060777;28;20052;-69
2023/04/12 07:59:48;;;;;;;8.82;1.40;;;;;;;12.33;74.81;100485.44;5061449;28;20025;-69
2023/04/12 08:02:18;;;;;;;9.77;1.58;;;;;;;12.18;76.04;100499.22;5058665;28;20037;-69
2023/04/12 08:04:44;;;;;;;8.52;1.60;;;;;;;12.10;75.86;100488.69;5057026;28;20029;-69
2023/04/12 08:07:10;;;;;;;6.05;1.40;;;;;;;12.59;74.60;100491.69;5057137;28;20029;-69
2023/04/12 08:09:35;;;;;;;8.20;1.60;;;;;;;12.30;74.37;100488.56;5041163;28;20373;-69
2023/04/12 08:12:02;;;;;;;8.60;1.48;;;;;;;12.98;73.69;100495.91;5058739;28;20082;-69
2023/04/12 08:14:27;;;;;;;8.30;1.50;;;;;;;12.41;73.70;100479.75;5054549;28;20021;-69
2023/04/12 08:16:53;;;;;;;7.70;1.45;;;;;;;12.70;73.62;100490.97;5055961;28;20039;-69
2023/04/12 08:19:19;;;;;;;7.13;1.40;;;;;;;13.36;72.28;100492.22;5056120;28;20056;-69
2023/04/12 08:21:44;;;;;;;7.90;1.30;;;;;;;13.61;71.75;100484.03;5056145;28;20159;-69
2023/04/12 08:24:09;;;;;;;15.70;2.42;;;;;;;13.74;70.66;100483.88;5055933;28;20116;-69
2023/04/12 08:26:35;;;;;;;7.38;1.33;;;;;;;13.50;70.43;100482.91;5038895;28;20021;-69
2023/04/12 08:29:00;;;;;;;6.22;1.33;;;;;;;13.25;71.21;100492.97;5057652;28;20037;-69
2023/04/12 08:31:27;;;;;;;9.05;1.30;;;;;;;13.47;70.13;100472.53;5056218;28;20079;-69
2023/04/12 08:33:52;;;;;;;6.47;1.40;;;;;;;13.01;70.01;100470.31;5053779;28;20032;-68
2023/04/12 08:36:18;;;;;;;4.30;1.40;;;;;;;13.55;69.82;100472.25;5054041;28;20090;-69
2023/04/12 08:38:43;;;;;;;7.93;1.27;;;;;;;13.83;68.86;100471.66;5039798;28;20033;-69
2023/04/12 08:41:08;;;;;;;8.45;1.33;;;;;;;13.84;68.80;100458.97;5039445;28;20067;-69
2023/04/12 08:43:36;;;;;;;9.55;1.60;;;;;;;14.01;67.84;100448.34;5023229;28;20029;-69
2023/04/12 08:46:02;;;;;;;10.88;1.95;;;;;;;14.23;67.61;100470.28;5061134;28;20064;-69
2023/04/12 08:48:28;;;;;;;8.55;1.83;;;;;;;14.22;66.84;100469.47;5057364;28;20037;-69
2023/04/12 08:50:56;;;;;;;8.63;1.58;;;;;;;13.94;66.15;100470.09;5039409;28;20028;-69
2023/04/12 08:53:22;;;;;;;8.45;1.42;;;;;;;14.12;66.45;100473.78;5056459;28;20057;-70
2023/04/12 08:55:47;;;;;;;10.77;1.70;;;;;;;14.52;65.77;100457.78;5055797;28;20037;-69
2023/04/12 08:58:13;;;;;;;9.30;1.35;;;;;;;14.21;66.08;100464.28;5055442;28;20051;-69
2023/04/12 09:00:43;;;;;;;8.45;1.80;;;;;;;14.38;65.93;100465.25;5056549;28;20048;-69
2023/04/12 09:03:11;;;;;;;8.20;1.60;;;;;;;14.36;65.14;100445.72;5038621;28;20487;-69
2023/04/12 09:05:37;;;;;;;8.38;1.50;;;;;;;14.60;64.21;100457.41;5055738;28;20033;-69
2023/04/12 09:08:03;;;;;;;12.75;1.73;;;;;;;14.74;63.91;100458.88;5057142;28;20060;-69
2023/04/12 09:10:33;;;;;;;10.73;1.42;;;;;;;14.81;62.89;100456.03;5055352;28;20098;-69
2023/04/12 09:13:00;;;;;;;9.77;2.10;;;;;;;14.80;62.60;100460.63;5057010;28;20105;-69
2023/04/12 09:15:25;;;;;;;9.85;1.52;;;;;;;14.67;62.66;100470.84;5053899;28;20033;-69
2023/04/12 09:18:06;;;;;;;7.25;1.60;;;;;;;15.07;62.10;100470.19;5056850;28;20090;-69
2023/04/12 09:20:31;;;;;;;7.10;1.60;;;;;;;14.86;61.69;100464.25;5056666;28;20045;-69
2023/04/12 09:22:57;;;;;;;7.72;1.58;;;;;;;15.54;61.21;100465.47;5056684;28;20045;-69
2023/04/12 09:25:39;;;;;;;12.30;1.63;;;;;;;15.79;59.56;100469.78;5054699;28;20044;-68
2023/04/12 09:28:21;;;;;;;9.25;1.30;;;;;;;15.49;58.91;100468.06;5055746;28;20043;-69
2023/04/12 09:30:52;;;;;;;11.60;1.45;;;;;;;15.33;58.59;100453.41;5056096;28;20025;-69
2023/04/12 09:33:19;;;;;;;13.85;1.75;;;;;;;15.45;58.99;100461.50;5057178;28;20486;-69
2023/04/12 09:35:45;;;;;;;6.25;1.40;;;;;;;15.57;58.66;100464.19;5055706;28;20063;-69
2023/04/12 09:38:10;;;;;;;7.32;1.60;;;;;;;15.50;59.18;100465.13;5057057;28;20021;-69
2023/04/12 09:40:37;;;;;;;8.57;1.58;;;;;;;15.24;58.80;100455.66;5059928;28;20060;-69
2023/04/12 09:43:03;;;;;;;7.07;1.77;;;;;;;15.36;58.77;100463.72;5060923;28;20044;-69
2023/04/12 09:45:31;;;;;;;6.82;1.23;;;;;;;15.73;58.02;100458.03;5059456;28;20472;-69
2023/04/12 09:47:56;;;;;;;6.57;1.52;;;;;;;15.76;57.78;100454.00;5062344;28;20067;-69
2023/04/12 09:50:27;;;;;;;10.10;1.48;;;;;;;15.78;57.90;100444.56;5063896;28;20044;-70
2023/04/12 09:52:54;;;;;;;5.78;1.50;;;;;;;16.09;57.64;100443.25;5059004;28;20021;-69
2023/04/12 09:55:22;;;;;;;6.45;1.40;;;;;;;16.14;57.04;100447.91;5058314;28;20024;-69
2023/04/12 09:57:50;;;;;;;9.18;1.77;;;;;;;16.38;56.59;100432.31;5059032;28;20029;-69
2023/04/12 10:00:16;;;;;;;5.20;1.15;;;;;;;16.54;56.25;100436.91;5060125;28;20031;-69
2023/04/12 10:02:44;;;;;;;7.72;1.27;;;;;;;16.66;56.49;100431.41;5059199;28;20039;-69
2023/04/12 10:05:12;;;;;;;8.13;1.45;;;;;;;16.68;56.43;100434.69;5060082;28;20475;-69
2023/04/12 10:07:43;;;;;;;7.63;1.70;;;;;;;16.28;56.62;100435.66;5058244;28;20021;-69
2023/04/12 10:10:11;;;;;;;8.75;1.85;;;;;;;16.29;56.49;100428.34;5057944;28;20085;-69
2023/04/12 10:12:38;;;;;;;10.93;1.60;;;;;;;16.23;56.31;100435.59;5059705;28;20027;-69
2023/04/12 10:15:06;;;;;;;8.10;1.48;;;;;;;16.06;56.39;100427.44;5043578;28;20120;-69
2023/04/12 10:17:34;;;;;;;4.95;1.02;;;;;;;15.81;56.49;100425.06;5059865;28;20060;-69
2023/04/12 10:20:00;;;;;;;4.57;1.20;;;;;;;15.64;56.60;100432.31;5059926;28;20056;-69
2023/04/12 10:22:26;;;;;;;5.30;1.27;;;;;;;15.68;56.33;100430.78;5042412;28;20021;-69
2023/04/12 10:24:51;;;;;;;6.72;1.45;;;;;;;15.67;56.60;100432.69;5061379;28;20494;-70
2023/04/12 10:27:26;;;;;;;8.23;1.30;;;;;;;15.62;56.77;100434.44;5061254;28;20033;-69
2023/04/12 10:29:52;;;;;;;6.07;1.30;;;;;;;15.39;56.70;100370.25;5062466;28;20037;-69
2023/04/12 10:32:19;;;;;;;7.72;1.30;;;;;;;15.92;56.57;100420.66;5042508;28;20031;-69
2023/04/12 10:34:49;;;;;;;8.52;1.45;;;;;;;16.01;56.24;100427.34;5059144;28;20028;-69
2023/04/12 10:37:15;;;;;;;7.40;1.63;;;;;;;16.10;56.00;100416.91;5059902;28;20032;-69
2023/04/12 10:39:43;;;;;;;6.85;1.55;;;;;;;16.12;56.50;100414.75;5060146;28;20025;-69
2023/04/12 10:42:28;;;;;;;6.40;1.45;;;;;;;16.36;55.79;100416.28;5059177;28;20040;-69
2023/04/12 10:44:55;;;;;;;7.40;1.45;;;;;;;16.53;55.81;100424.41;5059071;28;20021;-69
2023/04/12 10:47:48;;;;;;;9.55;2.20;;;;;;;16.65;55.90;100416.16;5060560;28;20102;-69
2023/04/12 10:50:28;;;;;;;6.07;1.55;;;;;;;17.01;55.30;100419.41;5058975;28;20024;-69
2023/04/12 10:53:11;;;;;;;7.60;1.50;;;;;;;17.24;54.55;100408.31;5060064;28;20017;-69
2023/04/12 10:55:41;;;;;;;6.03;1.50;;;;;;;17.41;54.47;100416.41;5058634;28;20025;-69
2023/04/12 10:58:07;;;;;;;6.38;1.52;;;;;;;17.45;54.56;100411.25;5059348;28;20021;-69
2023/04/12 11:01:05;;;;;;;8.48;1.60;;;;;;;17.38;54.04;100403.31;5058849;28;20025;-70
2023/04/12 11:03:30;;;;;;;6.13;1.60;;;;;;;17.14;54.39;100410.91;5046941;28;20067;-70
2023/04/12 11:06:01;;;;;;;5.95;1.30;;;;;;;16.84;54.81;100414.03;5060191;28;20024;-69
2023/04/12 11:08:31;;;;;;;11.18;1.67;;;;;;;16.63;54.91;100391.16;5042242;28;20032;-69
2023/04/12 11:11:21;;;;;;;7.95;1.63;;;;;;;16.72;54.29;100400.53;5058640;28;20017;-69
2023/04/12 11:13:46;;;;;;;5.75;1.58;;;;;;;16.57;55.13;100403.00;5060579;28;20107;-69
2023/04/12 11:16:12;;;;;;;8.77;1.70;;;;;;;16.48;55.34;100402.59;5059318;28;20120;-69
2023/04/12 11:18:38;;;;;;;6.47;1.80;;;;;;;16.40;54.80;100395.69;5059673;28;20049;-69
2023/04/12 11:21:04;;;;;;;9.82;2.15;;;;;;;16.62;54.39;100373.19;5041591;28;20024;-69
2023/04/12 11:23:31;;;;;;;10.00;1.77;;;;;;;16.89;53.85;100393.19;5057889;28;20028;-69